Terminal Aerodrome Forecast
Issued by NWS Jackson, KY

Home | Current Version | Previous Version | Text Only | Print | Product List | Glossary On
Versions: 1 2 3 4 5 6 7 8 9 10 11 12 13 14 15 16 17 18 19 20
000
FTUS43 KJKL 261142
TAFLOZ
TAF
KLOZ 261142Z 2612/2712 01007KT P6SM OVC005
     FM261500 35007KT P6SM OVC010
     FM261800 34007KT P6SM BKN020
     FM262000 34005KT P6SM SCT040=

USA.gov is the U.S. government's official web portal to all federal, state and local government web resources and services.